Ana Sayfa
METAR-TAF:

METAR-TAF

Havaalanları :

Istanbul Sabiha Gökçen, Türkiye

Sabiha Gökçen Havalimanı

Enlem: 40-53-55N, Boylam: 029-18-33E, yükseklik: 95 m

Güncel hava durumu gözlemi

Rapor saat 19:50 UTC de 48 dakika önce yapıldı.
Rüzgar kuzey/kuzeydoğudan 7 kt
Sıcaklık 23°C
Nem 78%
Basınç 1016 hPa
Görüş mesafesi 10 km veya daha fazla
1500 m altında bulut yok ve kümülonimbus yok

METAR: LTFJ 221950Z 02007KT CAVOK 23/19 Q1016 NOSIG RMK RWY24 01006KT

Saat: 23:38 (20:38 UTC)

Tahmin

Rapor saat 16:40 UTC de 3 saat ve 58 dakika önce yapıldı.
Ayın 22'si saat 18 UTC'den ayın 23'si saat 18 UTC'ye kadar geçerli Tahmin
Rüzgar kuzeydoğudan 9 kt
Görüş mesafesi 10 km veya daha fazla
1500 m altında bulut yok ve kümülonimbus yok
Olasılık 30% :
Geçici
ayın 22'si saat 23 UTC'den ayın 23'si saat 03 UTC'ye kadar
Görüş mesafesi: 1600 m
1000 ft yükseklikte parçalı bulutlu
sis kütleleri

TAF: LTFJ 221640Z 2218/2318 04009KT CAVOK PROB30 TEMPO 2223/2303 1600 BCFG SCT010

4.000'den fazla havaalanı için hava durumu gözlemleri ve tahminleri (METAR ve TAF raporları).

Kullanılabilir istasyonlar harita üzerinde sarı ve kırmızı noktalarla gösterilir.

İstasyonun adını görmek için fareyi noktanın üzerinde gezdirin.

Sonrasında hava gözlem ve tahminlerini görmek için tıklayın.

Haritayı değiştirmek için: yaklaştırmak için siyah artı işaretli yeşil düğmeye ve uzaklaştırmak için de eksi işaretli düğmeye hızla tıklayın; bitişik haritalar için yeşil okları kullanın.


METAR-TAF: